Time;durP1;ratioP1;P1;durP2;ratioP2;P2;SDS_P1;SDS_P2;PMS_P1;PMS_P2;Temp;Humidity;BMP_temperature;BMP_pressure;BME280_temperature;BME280_humidity;BME280_pressure;Samples;Min_cycle;Max_cycle;Signal;HPM_P1;HPM_P2
2021/11/30 00:00:10;;;;;;;8.10;7.03;;;1.60;99.90;;;;;;5039307;28;20202;-84
2021/11/30 00:02:38;;;;;;;8.48;6.40;;;1.50;99.90;;;;;;5038268;28;20654;-87
2021/11/30 00:05:09;;;;;;;8.40;7.60;;;1.50;99.90;;;;;;5037738;28;20233;-84
2021/11/30 00:10:46;;;;;;;9.10;8.10;;;1.60;99.90;;;;;;5036989;28;20206;-85
2021/11/30 00:13:18;;;;;;;8.70;7.40;;;1.60;99.90;;;;;;5038056;28;20553;-84
2021/11/30 00:18:48;;;;;;;15.30;7.38;;;1.50;99.90;;;;;;5037906;28;20194;-85
2021/11/30 00:21:15;;;;;;;7.13;6.43;;;1.40;99.90;;;;;;5039629;28;20684;-85
2021/11/30 00:23:42;;;;;;;6.53;5.93;;;1.40;99.90;;;;;;5040046;28;20199;-84
2021/11/30 00:26:10;;;;;;;10.82;7.80;;;1.50;99.90;;;;;;5039079;28;20242;-83
2021/11/30 00:28:36;;;;;;;9.98;7.22;;;1.50;99.90;;;;;;5040041;28;20199;-85
2021/11/30 00:31:03;;;;;;;8.07;6.57;;;1.60;99.90;;;;;;5038767;28;20210;-85
2021/11/30 00:33:30;;;;;;;7.80;7.00;;;1.60;99.90;;;;;;5039400;28;20204;-85
2021/11/30 00:35:57;;;;;;;8.95;8.18;;;1.40;99.90;;;;;;5038831;28;20222;-85
2021/11/30 00:38:26;;;;;;;5.63;5.13;;;1.40;99.90;;;;;;5039735;28;20207;-84
2021/11/30 00:40:53;;;;;;;7.50;5.95;;;1.30;99.90;;;;;;5039454;28;20199;-85
2021/11/30 00:43:26;;;;;;;10.23;6.63;;;1.30;99.90;;;;;;5039333;28;20220;-85
2021/11/30 00:45:56;;;;;;;6.05;4.95;;;1.20;99.90;;;;;;5040102;28;20210;-84
2021/11/30 00:48:29;;;;;;;5.13;4.72;;;1.20;99.90;;;;;;5040316;28;20610;-84
2021/11/30 00:50:59;;;;;;;6.57;5.35;;;1.10;99.90;;;;;;5039579;28;20250;-84
2021/11/30 00:53:26;;;;;;;8.43;5.90;;;1.20;99.90;;;;;;5038707;28;20302;-84
2021/11/30 00:55:53;;;;;;;6.07;5.47;;;1.20;99.90;;;;;;5037735;28;20216;-83
2021/11/30 00:58:21;;;;;;;8.38;5.97;;;1.30;99.90;;;;;;5037631;28;20199;-85
2021/11/30 01:00:48;;;;;;;5.53;5.03;;;1.30;99.90;;;;;;5037705;28;20208;-84
2021/11/30 01:03:15;;;;;;;4.97;4.35;;;1.40;99.90;;;;;;5037494;28;20194;-85
2021/11/30 01:05:42;;;;;;;5.40;4.70;;;1.30;99.90;;;;;;5040447;28;20301;-84
2021/11/30 01:08:09;;;;;;;6.30;5.70;;;1.30;99.90;;;;;;5039245;28;20206;-84
2021/11/30 01:10:36;;;;;;;6.60;5.10;;;1.30;99.90;;;;;;5040128;28;20208;-85
2021/11/30 01:13:04;;;;;;;6.80;5.93;;;1.30;99.90;;;;;;5039473;28;20203;-83
2021/11/30 01:15:33;;;;;;;5.47;4.65;;;1.30;99.90;;;;;;5040213;28;20206;-84
2021/11/30 01:18:01;;;;;;;6.47;5.13;;;1.30;99.90;;;;;;5039303;28;20229;-84
2021/11/30 01:20:33;;;;;;;7.90;6.03;;;1.30;99.90;;;;;;5038153;28;20215;-85
2021/11/30 01:23:00;;;;;;;6.28;5.45;;;1.30;99.90;;;;;;5037360;28;20213;-84
2021/11/30 01:25:28;;;;;;;8.35;5.53;;;1.40;99.90;;;;;;5039019;28;20689;-83
2021/11/30 01:27:55;;;;;;;5.65;5.15;;;1.40;99.90;;;;;;5038093;28;20237;-82
2021/11/30 01:30:25;;;;;;;7.05;5.20;;;1.50;99.90;;;;;;5038959;28;20207;-85
2021/11/30 01:33:03;;;;;;;4.75;4.35;;;1.60;99.90;;;;;;5038210;28;20214;-85
2021/11/30 01:35:48;;;;;;;4.75;4.30;;;1.60;99.90;;;;;;5020986;28;20213;-85
2021/11/30 01:38:26;;;;;;;4.47;4.07;;;1.60;99.90;;;;;;5037681;28;20256;-85
2021/11/30 01:41:00;;;;;;;3.72;3.42;;;1.60;99.90;;;;;;5039430;28;20274;-83
2021/11/30 01:43:36;;;;;;;5.55;4.63;;;1.40;99.90;;;;;;5039212;28;20214;-83
2021/11/30 01:46:12;;;;;;;5.30;4.72;;;1.50;99.90;;;;;;5039853;28;20257;-85
2021/11/30 01:49:18;;;;;;;7.30;3.95;;;1.50;99.90;;;;;;5037927;28;20210;-84
2021/11/30 01:51:45;;;;;;;3.40;3.10;;;1.40;99.90;;;;;;5037570;28;20601;-84
2021/11/30 01:54:12;;;;;;;4.55;4.03;;;1.40;99.90;;;;;;5036458;28;20190;-83
2021/11/30 01:56:39;;;;;;;3.85;3.53;;;1.50;99.90;;;;;;5037410;28;20222;-83
2021/11/30 01:59:06;;;;;;;3.92;3.05;;;1.50;99.90;;;;;;5038075;28;20211;-85
2021/11/30 02:01:32;;;;;;;3.17;2.97;;;1.40;99.90;;;;;;5037791;28;20222;-84
2021/11/30 02:04:01;;;;;;;6.93;4.05;;;1.50;99.90;;;;;;5037052;28;20209;-85
2021/11/30 02:06:28;;;;;;;5.60;4.25;;;1.50;99.90;;;;;;5037529;28;20295;-85
2021/11/30 02:08:57;;;;;;;4.60;3.80;;;1.40;99.90;;;;;;5037513;28;20275;-84
2021/11/30 02:11:25;;;;;;;4.45;4.05;;;1.50;99.90;;;;;;5040200;28;20573;-84
2021/11/30 02:13:52;;;;;;;3.80;3.15;;;1.40;99.90;;;;;;5056070;28;20230;-82
2021/11/30 02:16:21;;;;;;;5.28;3.75;;;1.40;99.90;;;;;;5050332;28;20636;-84
2021/11/30 02:18:48;;;;;;;4.40;4.00;;;1.40;99.90;;;;;;5044412;28;20656;-84
2021/11/30 02:21:17;;;;;;;3.35;3.10;;;1.50;99.90;;;;;;5043059;28;20569;-84
2021/11/30 02:23:48;;;;;;;3.83;3.47;;;1.50;99.90;;;;;;5042591;28;20683;-83
2021/11/30 02:26:16;;;;;;;3.72;3.42;;;1.60;99.90;;;;;;5057709;22;20246;-84
2021/11/30 02:28:46;;;;;;;4.63;4.22;;;1.60;99.90;;;;;;5041342;28;20196;-84
2021/11/30 02:31:15;;;;;;;7.35;3.47;;;1.50;99.90;;;;;;5042756;28;20274;-86
2021/11/30 02:33:42;;;;;;;3.83;3.53;;;1.40;99.90;;;;;;5060529;28;20226;-84
2021/11/30 02:36:21;;;;;;;3.63;3.33;;;1.40;99.90;;;;;;5058528;28;20211;-85
2021/11/30 02:38:47;;;;;;;4.47;4.22;;;1.40;99.90;;;;;;5040535;28;20218;-85
2021/11/30 02:41:14;;;;;;;3.72;3.30;;;1.40;99.90;;;;;;5037966;28;20571;-84
2021/11/30 02:43:41;;;;;;;3.95;3.75;;;1.30;99.90;;;;;;5038589;28;20218;-84
2021/11/30 02:46:08;;;;;;;1.85;1.75;;;1.30;99.90;;;;;;5035009;28;20210;-84
2021/11/30 02:48:35;;;;;;;4.43;4.03;;;1.20;99.90;;;;;;5044366;28;20197;-83
2021/11/30 02:51:07;;;;;;;4.55;2.97;;;1.30;99.90;;;;;;5055139;28;20209;-84
2021/11/30 02:53:36;;;;;;;4.10;3.70;;;1.30;99.90;;;;;;5054930;28;20209;-85
2021/11/30 02:56:03;;;;;;;3.80;2.40;;;1.40;99.90;;;;;;5055340;28;20589;-83
2021/11/30 02:58:32;;;;;;;5.03;3.00;;;1.20;99.90;;;;;;5037430;28;20739;-84
2021/11/30 03:01:02;;;;;;;4.25;3.85;;;1.30;99.90;;;;;;5034523;28;20627;-84
2021/11/30 03:03:29;;;;;;;2.40;2.20;;;1.30;99.90;;;;;;5034903;28;20224;-85
2021/11/30 03:05:57;;;;;;;3.13;2.92;;;1.30;99.90;;;;;;5034798;28;20301;-84
2021/11/30 03:08:24;;;;;;;3.03;2.83;;;1.30;99.90;;;;;;5051429;28;20229;-84
2021/11/30 03:10:52;;;;;;;3.28;3.08;;;1.40;99.90;;;;;;5054464;28;20218;-85
2021/11/30 03:13:19;;;;;;;3.15;2.88;;;1.40;99.90;;;;;;5051630;28;20252;-85
2021/11/30 03:15:46;;;;;;;3.67;3.20;;;1.30;99.90;;;;;;5014833;28;20211;-85
2021/11/30 03:18:13;;;;;;;2.95;2.75;;;1.20;99.90;;;;;;5053460;28;20591;-85
2021/11/30 03:20:45;;;;;;;5.40;3.00;;;1.30;99.90;;;;;;5053999;28;20214;-84
2021/11/30 03:23:12;;;;;;;3.20;2.15;;;1.30;99.90;;;;;;5053442;28;20204;-84
2021/11/30 03:25:40;;;;;;;3.60;2.67;;;1.30;99.90;;;;;;5055673;28;20686;-86
2021/11/30 03:28:09;;;;;;;3.47;3.20;;;1.40;99.90;;;;;;5036962;28;20265;-85
2021/11/30 03:30:41;;;;;;;2.53;2.38;;;1.40;99.90;;;;;;5036188;28;20203;-84
2021/11/30 03:35:53;;;;;;;5.72;2.38;;;1.50;99.90;;;;;;5035736;28;20201;-84
2021/11/30 03:38:20;;;;;;;2.30;2.20;;;1.50;99.90;;;;;;5035380;28;20207;-86
2021/11/30 03:40:47;;;;;;;2.50;2.30;;;1.60;99.90;;;;;;5051089;28;20203;-85
2021/11/30 03:43:15;;;;;;;5.90;3.85;;;1.50;99.90;;;;;;5055451;28;20216;-85
2021/11/30 03:45:42;;;;;;;3.42;2.53;;;1.60;99.90;;;;;;5041283;28;20206;-84
2021/11/30 03:48:11;;;;;;;4.75;2.97;;;1.50;99.90;;;;;;5034788;28;20242;-84
2021/11/30 03:50:38;;;;;;;2.20;2.00;;;1.60;99.90;;;;;;5054637;28;20206;-84
2021/11/30 03:53:05;;;;;;;2.20;2.10;;;1.50;99.90;;;;;;5073091;28;20577;-84
2021/11/30 03:55:32;;;;;;;5.88;2.33;;;1.50;99.90;;;;;;5060333;28;20206;-84
2021/11/30 03:57:59;;;;;;;3.70;2.92;;;1.50;99.90;;;;;;5053898;28;20233;-83
2021/11/30 04:00:27;;;;;;;2.72;2.55;;;1.60;99.90;;;;;;5057081;28;20202;-85
2021/11/30 04:02:54;;;;;;;2.72;2.53;;;1.60;99.90;;;;;;5057855;28;20202;-85
2021/11/30 04:05:21;;;;;;;3.70;3.22;;;1.60;99.90;;;;;;5047697;28;20266;-84
2021/11/30 04:07:47;;;;;;;2.22;2.00;;;1.60;99.90;;;;;;5036407;28;20226;-84
2021/11/30 04:10:14;;;;;;;3.03;2.67;;;1.60;99.90;;;;;;5045985;28;20209;-84
2021/11/30 04:12:41;;;;;;;4.22;2.53;;;1.50;99.90;;;;;;5046560;28;20206;-84
2021/11/30 04:15:08;;;;;;;2.42;2.22;;;1.50;99.90;;;;;;5034797;28;20209;-84
2021/11/30 04:17:40;;;;;;;2.65;2.45;;;1.50;99.90;;;;;;5040294;28;20218;-83
2021/11/30 04:20:07;;;;;;;4.03;3.47;;;1.60;99.90;;;;;;5054395;28;20224;-83
2021/11/30 04:22:34;;;;;;;3.35;3.05;;;1.60;99.90;;;;;;5049750;28;20199;-84
2021/11/30 04:25:00;;;;;;;3.28;1.70;;;1.60;99.90;;;;;;5039258;28;20211;-83
2021/11/30 04:27:27;;;;;;;2.83;2.55;;;1.60;99.90;;;;;;5036971;28;20228;-84
2021/11/30 04:29:54;;;;;;;3.25;2.92;;;1.50;99.90;;;;;;5052164;28;20209;-86
2021/11/30 04:32:21;;;;;;;4.28;2.63;;;1.50;99.90;;;;;;5059079;28;20594;-84
2021/11/30 04:34:49;;;;;;;3.47;3.20;;;1.50;99.90;;;;;;5058432;28;20209;-84
2021/11/30 04:37:15;;;;;;;4.05;2.85;;;1.60;99.90;;;;;;5057980;28;20221;-84
2021/11/30 04:39:42;;;;;;;2.35;2.15;;;1.50;99.90;;;;;;5043897;28;20201;-85
2021/11/30 04:42:09;;;;;;;3.20;2.90;;;1.40;99.90;;;;;;5055014;28;20209;-86
2021/11/30 04:44:38;;;;;;;4.20;3.58;;;1.40;99.90;;;;;;5035526;28;20204;-85
2021/11/30 04:47:07;;;;;;;3.00;2.80;;;1.40;99.90;;;;;;5036131;28;20230;-84
2021/11/30 04:49:44;;;;;;;3.22;3.03;;;1.30;99.90;;;;;;5053820;28;20675;-84
2021/11/30 04:52:14;;;;;;;3.22;2.92;;;1.30;99.90;;;;;;5055219;28;20205;-86
2021/11/30 04:54:42;;;;;;;3.00;2.75;;;1.20;99.90;;;;;;5036616;28;20301;-84
2021/11/30 04:57:11;;;;;;;2.10;1.90;;;1.30;99.90;;;;;;5035457;28;20295;-84
2021/11/30 04:59:37;;;;;;;3.10;2.90;;;1.20;99.90;;;;;;5054002;28;20201;-85
2021/11/30 05:02:04;;;;;;;4.60;3.17;;;1.30;99.90;;;;;;5055214;28;20212;-84
2021/11/30 05:04:32;;;;;;;2.30;2.17;;;1.30;99.90;;;;;;5038469;28;20702;-85
2021/11/30 05:06:59;;;;;;;3.90;3.60;;;1.20;99.90;;;;;;5038913;28;20222;-84
2021/11/30 05:09:27;;;;;;;12.50;5.97;;;1.30;99.90;;;;;;5056151;28;20678;-85
2021/11/30 05:11:54;;;;;;;3.83;3.17;;;1.20;99.90;;;;;;5036266;28;20215;-84
2021/11/30 05:14:21;;;;;;;3.80;3.33;;;1.10;99.90;;;;;;5036046;28;20209;-84
2021/11/30 05:16:48;;;;;;;4.90;4.53;;;1.20;99.90;;;;;;5055545;28;20221;-84
2021/11/30 05:19:14;;;;;;;4.05;3.72;;;1.20;99.90;;;;;;5056525;28;20217;-84
2021/11/30 05:21:41;;;;;;;4.30;2.67;;;1.20;99.90;;;;;;5037832;28;20206;-84
2021/11/30 05:24:10;;;;;;;4.57;3.60;;;1.20;99.90;;;;;;5036258;28;20210;-84
2021/11/30 05:26:38;;;;;;;8.82;4.00;;;1.20;99.90;;;;;;5036393;28;20242;-85
2021/11/30 05:29:05;;;;;;;6.75;4.05;;;1.20;99.90;;;;;;5035628;28;20236;-83
2021/11/30 05:31:32;;;;;;;3.65;3.35;;;1.10;99.90;;;;;;5037445;28;20545;-85
2021/11/30 05:33:59;;;;;;;2.22;2.00;;;1.20;99.90;;;;;;5036133;28;20206;-83
2021/11/30 05:36:27;;;;;;;5.30;4.40;;;1.10;99.90;;;;;;5050862;28;20222;-84
2021/11/30 05:38:54;;;;;;;2.80;2.60;;;1.10;99.90;;;;;;5056628;28;20208;-85
2021/11/30 05:41:21;;;;;;;4.80;3.60;;;1.00;99.90;;;;;;5043494;28;20238;-84
2021/11/30 05:43:49;;;;;;;6.32;4.72;;;1.00;99.90;;;;;;5048263;28;20198;-84
2021/11/30 05:46:16;;;;;;;4.20;2.95;;;1.10;99.90;;;;;;5055438;28;20309;-84
2021/11/30 05:48:42;;;;;;;4.35;3.85;;;1.00;99.90;;;;;;5050731;28;20227;-84
2021/11/30 05:51:09;;;;;;;5.13;2.95;;;1.00;99.90;;;;;;5042476;28;20207;-84
2021/11/30 05:53:36;;;;;;;5.68;4.93;;;1.00;99.90;;;;;;5050383;28;20739;-84
2021/11/30 05:56:05;;;;;;;5.00;4.60;;;1.00;99.90;;;;;;5041259;28;20620;-84
2021/11/30 05:58:36;;;;;;;4.28;3.85;;;0.90;99.90;;;;;;5044236;28;20190;-84
2021/11/30 06:01:09;;;;;;;3.72;3.30;;;0.90;99.90;;;;;;5059815;28;20647;-83
2021/11/30 06:03:55;;;;;;;5.53;4.40;;;0.90;99.90;;;;;;5058612;28;20198;-84
2021/11/30 06:06:22;;;;;;;4.82;4.25;;;0.90;99.90;;;;;;5070724;28;20241;-82
2021/11/30 06:08:49;;;;;;;5.00;4.50;;;0.90;99.90;;;;;;5065553;28;20206;-83
2021/11/30 06:11:16;;;;;;;4.18;3.88;;;0.90;99.90;;;;;;5055242;28;20218;-83
2021/11/30 06:13:43;;;;;;;4.13;3.80;;;1.00;99.90;;;;;;5058895;28;20263;-84
2021/11/30 06:16:11;;;;;;;4.03;3.40;;;0.90;99.90;;;;;;5060445;28;20206;-83
2021/11/30 06:18:38;;;;;;;4.60;4.03;;;0.90;99.90;;;;;;5052553;28;20202;-83
2021/11/30 06:21:05;;;;;;;4.00;3.50;;;0.90;99.90;;;;;;5040839;28;20203;-85
2021/11/30 06:23:31;;;;;;;4.65;3.92;;;0.90;99.90;;;;;;5045486;28;20210;-84
2021/11/30 06:25:58;;;;;;;4.47;4.07;;;0.90;99.90;;;;;;5060517;28;20213;-83
2021/11/30 06:28:25;;;;;;;4.80;4.40;;;0.80;99.90;;;;;;5056008;28;20225;-84
2021/11/30 06:30:52;;;;;;;5.82;5.28;;;0.70;99.90;;;;;;5040685;28;20548;-85
2021/11/30 06:33:20;;;;;;;3.85;3.50;;;0.80;99.90;;;;;;5049344;28;20202;-84
2021/11/30 06:35:47;;;;;;;5.90;5.35;;;0.80;99.90;;;;;;5060481;28;20209;-85
2021/11/30 06:38:13;;;;;;;6.00;4.20;;;0.70;99.90;;;;;;5044100;28;20218;-85
2021/11/30 06:40:40;;;;;;;4.00;3.60;;;0.70;99.90;;;;;;5040173;28;20826;-84
2021/11/30 06:43:07;;;;;;;6.32;4.60;;;0.60;99.90;;;;;;5054147;28;20208;-84
2021/11/30 06:45:34;;;;;;;10.05;5.47;;;0.60;99.90;;;;;;5060051;28;20213;-85
2021/11/30 06:48:00;;;;;;;8.75;5.82;;;0.60;99.90;;;;;;5045636;28;20226;-84
2021/11/30 06:50:29;;;;;;;4.88;4.47;;;0.60;99.90;;;;;;5038964;28;20210;-84
2021/11/30 06:52:55;;;;;;;5.35;4.85;;;0.60;99.90;;;;;;5051672;28;20568;-85
2021/11/30 06:55:22;;;;;;;5.53;5.10;;;0.50;99.90;;;;;;5060444;28;20210;-84
2021/11/30 06:57:49;;;;;;;3.55;3.33;;;0.50;99.90;;;;;;5048623;28;20218;-83
2021/11/30 07:00:20;;;;;;;7.05;5.40;;;0.50;99.90;;;;;;5039874;28;20207;-84
2021/11/30 07:02:48;;;;;;;5.82;3.85;;;0.60;99.90;;;;;;5049372;28;20263;-85
2021/11/30 07:05:19;;;;;;;3.75;2.88;;;0.50;99.90;;;;;;5057013;28;20225;-84
2021/11/30 07:07:56;;;;;;;4.43;3.88;;;0.60;99.90;;;;;;5039689;28;20226;-84
2021/11/30 07:10:37;;;;;;;6.30;4.60;;;0.50;99.90;;;;;;5045318;28;20229;-84
2021/11/30 07:13:15;;;;;;;3.85;3.55;;;0.50;99.90;;;;;;5060763;28;20212;-85
2021/11/30 07:15:44;;;;;;;13.18;3.53;;;0.50;99.90;;;;;;5053985;28;20203;-84
2021/11/30 07:18:11;;;;;;;3.63;3.05;;;0.50;99.90;;;;;;5040179;28;20454;-85
2021/11/30 07:20:39;;;;;;;3.42;3.25;;;0.60;99.90;;;;;;5040839;28;20206;-84
2021/11/30 07:23:16;;;;;;;5.95;3.25;;;0.70;99.90;;;;;;5043382;28;20204;-84
2021/11/30 07:25:44;;;;;;;2.75;2.53;;;0.70;99.90;;;;;;5039430;28;20214;-84
2021/11/30 07:28:11;;;;;;;3.67;3.40;;;0.70;99.90;;;;;;5042231;28;20277;-84
2021/11/30 07:30:39;;;;;;;2.95;2.67;;;0.80;99.90;;;;;;5038527;28;20582;-84
2021/11/30 07:33:05;;;;;;;4.22;3.83;;;0.80;99.90;;;;;;5039692;28;20199;-84
2021/11/30 07:35:32;;;;;;;2.75;2.60;;;0.80;99.90;;;;;;5039721;28;20585;-83
2021/11/30 07:37:59;;;;;;;2.63;2.45;;;0.80;99.90;;;;;;5041790;28;20215;-84
2021/11/30 07:40:27;;;;;;;2.13;2.03;;;0.80;99.90;;;;;;5040371;28;20209;-83
2021/11/30 07:42:54;;;;;;;3.67;3.10;;;0.80;99.90;;;;;;5033557;28;20209;-83
2021/11/30 07:45:21;;;;;;;3.55;2.83;;;0.80;99.90;;;;;;5033176;28;20226;-82
2021/11/30 07:47:48;;;;;;;2.40;2.20;;;0.80;99.90;;;;;;5033379;28;20878;-82
2021/11/30 07:50:15;;;;;;;2.45;2.20;;;0.90;99.90;;;;;;5033622;28;20662;-82
2021/11/30 07:52:43;;;;;;;3.10;2.85;;;0.80;99.90;;;;;;5036959;28;20699;-81
2021/11/30 07:55:12;;;;;;;3.78;3.55;;;0.80;99.90;;;;;;5036359;28;20238;-82
2021/11/30 07:57:41;;;;;;;2.42;2.22;;;1.00;99.90;;;;;;5033959;28;20230;-82
2021/11/30 08:00:10;;;;;;;2.10;1.80;;;1.00;99.90;;;;;;5038626;28;20202;-82
2021/11/30 08:02:37;;;;;;;2.50;2.30;;;1.00;99.90;;;;;;5049694;28;20202;-81
2021/11/30 08:05:05;;;;;;;3.40;2.50;;;1.00;99.90;;;;;;5050982;28;20212;-83
2021/11/30 08:07:32;;;;;;;3.15;2.85;;;1.10;99.90;;;;;;5038886;28;20754;-82
2021/11/30 08:09:59;;;;;;;3.08;2.90;;;1.10;99.90;;;;;;5040534;28;20596;-82
2021/11/30 08:12:26;;;;;;;3.10;2.80;;;1.10;99.90;;;;;;5058504;28;20231;-83
2021/11/30 08:14:54;;;;;;;2.33;2.17;;;1.10;99.90;;;;;;5057138;28;20209;-83
2021/11/30 08:17:21;;;;;;;3.40;2.90;;;1.10;99.90;;;;;;5038996;28;20594;-82
2021/11/30 08:19:49;;;;;;;1.83;1.73;;;1.10;99.90;;;;;;5044971;28;20206;-84
2021/11/30 08:22:18;;;;;;;3.45;2.10;;;1.10;99.90;;;;;;5058764;28;20198;-84
2021/11/30 08:24:44;;;;;;;2.25;2.15;;;1.10;99.90;;;;;;5048304;28;20213;-83
2021/11/30 08:27:12;;;;;;;2.47;2.30;;;1.10;99.90;;;;;;5039767;28;20298;-83
2021/11/30 08:29:40;;;;;;;2.25;2.15;;;1.00;99.90;;;;;;5053724;28;20220;-83
2021/11/30 08:32:09;;;;;;;2.35;2.15;;;1.10;99.90;;;;;;5062021;28;20205;-83
2021/11/30 08:34:37;;;;;;;3.45;2.20;;;1.20;99.90;;;;;;5050567;28;20619;-83
2021/11/30 08:37:04;;;;;;;2.67;2.22;;;1.10;99.90;;;;;;5042038;28;20234;-83
2021/11/30 08:39:33;;;;;;;3.92;2.10;;;1.10;99.90;;;;;;5040489;28;20210;-83
2021/11/30 08:42:00;;;;;;;2.85;2.47;;;1.20;99.90;;;;;;5037743;28;20229;-82
2021/11/30 08:44:27;;;;;;;2.65;1.85;;;1.20;99.90;;;;;;5057791;28;20213;-83
2021/11/30 08:46:53;;;;;;;2.38;2.17;;;1.20;99.90;;;;;;5030195;28;20227;-82
2021/11/30 08:49:22;;;;;;;5.45;5.20;;;1.30;99.90;;;;;;5042007;28;20680;-83
2021/11/30 08:51:49;;;;;;;2.47;2.25;;;1.40;99.90;;;;;;5050751;28;20195;-81
2021/11/30 08:54:16;;;;;;;5.15;2.72;;;1.50;99.90;;;;;;5052990;28;20202;-82
2021/11/30 08:56:42;;;;;;;2.40;2.30;;;1.50;99.90;;;;;;5052605;28;20309;-81
2021/11/30 08:59:11;;;;;;;2.33;2.10;;;1.60;99.90;;;;;;5052403;28;20190;-83
2021/11/30 09:01:38;;;;;;;2.00;1.90;;;1.50;99.90;;;;;;5041473;28;20233;-82
2021/11/30 09:04:05;;;;;;;1.98;1.75;;;1.60;99.90;;;;;;5038892;28;20206;-83
2021/11/30 09:06:33;;;;;;;4.43;2.05;;;1.50;99.90;;;;;;5041516;28;20233;-83
2021/11/30 09:09:00;;;;;;;2.15;2.05;;;1.50;99.90;;;;;;5038548;28;20229;-83
2021/11/30 09:11:27;;;;;;;1.80;1.70;;;1.50;99.90;;;;;;5033526;28;20225;-82
2021/11/30 09:13:54;;;;;;;3.88;2.83;;;1.60;99.90;;;;;;5034295;28;20206;-83
2021/11/30 09:16:22;;;;;;;2.78;2.47;;;1.70;99.90;;;;;;5035515;28;20252;-83
2021/11/30 09:18:51;;;;;;;1.23;1.23;;;1.80;99.90;;;;;;5038311;28;20260;-83
2021/11/30 09:21:19;;;;;;;2.78;2.17;;;1.70;99.90;;;;;;5050116;28;20198;-83
2021/11/30 09:23:48;;;;;;;1.02;0.95;;;1.60;99.90;;;;;;5051930;28;20648;-84
2021/11/30 09:26:23;;;;;;;2.80;2.60;;;1.60;99.90;;;;;;5037346;28;20242;-83
2021/11/30 09:28:51;;;;;;;1.67;1.42;;;1.70;99.90;;;;;;5056056;28;20283;-83
2021/11/30 09:31:18;;;;;;;1.70;1.60;;;1.70;99.90;;;;;;5060575;28;20210;-83
2021/11/30 09:34:21;;;;;;;2.42;2.08;;;1.70;99.90;;;;;;5043762;28;20210;-83
2021/11/30 09:36:48;;;;;;;1.77;1.67;;;1.80;99.90;;;;;;5041263;28;20230;-83
2021/11/30 09:39:17;;;;;;;1.50;1.40;;;1.90;99.90;;;;;;5066516;28;20202;-83
2021/11/30 09:41:44;;;;;;;1.60;1.50;;;1.80;99.90;;;;;;5047513;28;20209;-83
2021/11/30 09:44:13;;;;;;;1.55;1.45;;;1.80;99.90;;;;;;5047622;28;20589;-82
2021/11/30 09:46:40;;;;;;;2.10;1.90;;;1.90;99.90;;;;;;5062835;28;20231;-83
2021/11/30 09:49:07;;;;;;;2.03;1.92;;;1.90;99.90;;;;;;5067182;28;20403;-83
2021/11/30 09:51:34;;;;;;;1.83;1.73;;;1.90;99.90;;;;;;5046877;28;20207;-82
2021/11/30 09:54:01;;;;;;;1.55;1.45;;;2.00;99.90;;;;;;5046293;28;20245;-83
2021/11/30 09:56:29;;;;;;;1.70;1.60;;;2.00;99.90;;;;;;5056915;28;20227;-83
2021/11/30 09:58:56;;;;;;;2.63;2.38;;;2.00;99.90;;;;;;5044356;28;20213;-82
2021/11/30 10:01:23;;;;;;;3.10;1.60;;;2.00;99.90;;;;;;5044480;28;20218;-84
2021/11/30 10:03:50;;;;;;;5.45;1.77;;;2.00;99.90;;;;;;5045233;28;20305;-82
2021/11/30 10:06:17;;;;;;;1.15;1.15;;;2.00;99.90;;;;;;5039542;28;20227;-83
2021/11/30 10:08:46;;;;;;;1.63;1.45;;;2.00;99.90;;;;;;5060113;28;20207;-82
2021/11/30 10:11:33;;;;;;;1.23;1.23;;;2.00;99.90;;;;;;5057116;28;20723;-84
2021/11/30 10:14:19;;;;;;;1.95;1.15;;;2.00;99.90;;;;;;5015998;28;20239;-83
2021/11/30 10:17:19;;;;;;;1.58;1.48;;;2.10;99.90;;;;;;5019180;28;20234;-82
2021/11/30 10:19:53;;;;;;;1.25;1.15;;;2.00;99.90;;;;;;5055820;28;20208;-83
2021/11/30 10:22:53;;;;;;;1.17;1.08;;;2.20;99.90;;;;;;5049790;28;20202;-83
2021/11/30 10:25:28;;;;;;;1.17;1.17;;;2.10;99.90;;;;;;4978371;28;20316;-83
2021/11/30 10:28:00;;;;;;;1.15;1.15;;;2.10;99.90;;;;;;5037007;28;20290;-84
2021/11/30 10:30:29;;;;;;;0.82;0.82;;;2.20;99.90;;;;;;5039296;28;20228;-83
2021/11/30 10:33:02;;;;;;;1.35;1.20;;;2.30;99.90;;;;;;5045127;28;20200;-84
2021/11/30 10:35:30;;;;;;;1.00;1.00;;;2.10;99.90;;;;;;5034538;28;20206;-84
2021/11/30 10:37:58;;;;;;;0.85;0.85;;;2.10;99.90;;;;;;5044500;28;20224;-83
2021/11/30 10:40:28;;;;;;;2.15;1.10;;;2.10;99.90;;;;;;5062061;28;20206;-83
2021/11/30 10:42:58;;;;;;;0.85;0.85;;;2.10;99.90;;;;;;5055647;28;20199;-83
2021/11/30 10:45:27;;;;;;;1.58;1.48;;;2.20;99.90;;;;;;5043944;28;20217;-81
2021/11/30 10:51:03;;;;;;;2.58;1.58;;;2.00;99.90;;;;;;5061107;28;20236;-84
2021/11/30 10:54:04;;;;;;;1.35;1.25;;;2.00;99.90;;;;;;5053407;28;20202;-84
2021/11/30 10:57:28;;;;;;;1.33;1.33;;;2.00;99.90;;;;;;5045065;28;20245;-83
2021/11/30 11:03:06;;;;;;;1.55;1.45;;;2.10;99.90;;;;;;5023559;28;20207;-83
2021/11/30 11:05:36;;;;;;;1.27;1.10;;;2.00;99.90;;;;;;5038868;28;20194;-83
2021/11/30 11:08:07;;;;;;;0.98;0.98;;;2.00;99.90;;;;;;5058707;28;20320;-84
2021/11/30 11:10:35;;;;;;;2.47;0.80;;;2.10;99.90;;;;;;5052696;28;20596;-86
2021/11/30 11:13:28;;;;;;;0.68;0.68;;;2.00;99.90;;;;;;5043059;28;20230;-83
2021/11/30 11:15:58;;;;;;;1.10;1.10;;;2.10;99.90;;;;;;5049057;28;20198;-84
2021/11/30 11:18:27;;;;;;;0.80;0.80;;;2.00;99.90;;;;;;5070734;28;20236;-84
2021/11/30 11:21:14;;;;;;;1.00;1.00;;;2.10;99.90;;;;;;5067418;28;20226;-83
2021/11/30 11:23:43;;;;;;;1.05;1.00;;;2.10;99.90;;;;;;5046473;28;20664;-86
2021/11/30 11:26:25;;;;;;;0.60;0.60;;;2.20;99.90;;;;;;5045425;28;20210;-85
2021/11/30 11:28:53;;;;;;;1.15;1.15;;;2.20;99.90;;;;;;5063581;28;20233;-82
2021/11/30 11:31:23;;;;;;;1.08;0.93;;;2.20;99.90;;;;;;5070438;28;20213;-81
2021/11/30 11:33:52;;;;;;;0.90;0.90;;;2.30;99.90;;;;;;5057539;28;20187;-81
2021/11/30 11:36:20;;;;;;;0.85;0.80;;;2.30;99.90;;;;;;5059644;28;20679;-85
2021/11/30 11:38:47;;;;;;;1.10;1.10;;;2.30;99.90;;;;;;5074289;28;20228;-83
2021/11/30 11:41:14;;;;;;;0.88;0.88;;;2.30;99.90;;;;;;5069550;28;20432;-85
2021/11/30 11:43:42;;;;;;;1.58;1.48;;;2.30;99.90;;;;;;5042966;28;20209;-86
2021/11/30 11:46:13;;;;;;;1.60;1.10;;;2.30;99.90;;;;;;5041351;28;20571;-83
2021/11/30 11:48:46;;;;;;;1.02;0.80;;;2.30;99.90;;;;;;5048589;28;20320;-86
2021/11/30 11:51:14;;;;;;;1.10;1.05;;;2.30;99.90;;;;;;5048337;28;20229;-83
2021/11/30 11:53:51;;;;;;;0.60;0.60;;;2.30;99.90;;;;;;5043868;28;20301;-84
2021/11/30 11:56:26;;;;;;;0.50;0.50;;;2.30;99.90;;;;;;5060517;28;20269;-84
2021/11/30 11:59:10;;;;;;;1.10;1.10;;;2.20;99.90;;;;;;5054881;28;20205;-85
2021/11/30 12:01:38;;;;;;;0.75;0.75;;;2.30;99.90;;;;;;5053473;28;20208;-84
2021/11/30 12:04:08;;;;;;;3.83;1.30;;;2.20;99.90;;;;;;5045665;28;20202;-84
2021/11/30 12:06:36;;;;;;;0.75;0.75;;;2.20;99.90;;;;;;5033960;28;20610;-83
2021/11/30 12:09:27;;;;;;;1.05;1.05;;;2.30;99.90;;;;;;5058029;28;20273;-83
2021/11/30 12:11:58;;;;;;;1.40;1.30;;;2.30;99.90;;;;;;5054309;28;20206;-85
2021/11/30 12:14:31;;;;;;;0.95;0.95;;;2.30;99.90;;;;;;5042947;28;20212;-84
2021/11/30 12:17:04;;;;;;;1.45;1.25;;;2.30;99.90;;;;;;5035671;28;20237;-83
2021/11/30 12:19:37;;;;;;;1.35;1.35;;;2.30;99.90;;;;;;5034392;28;20636;-83
2021/11/30 12:22:05;;;;;;;0.77;0.77;;;2.30;99.90;;;;;;5048718;28;20206;-83
2021/11/30 12:24:33;;;;;;;1.60;1.50;;;2.30;99.90;;;;;;5065124;28;20197;-83
2021/11/30 12:27:01;;;;;;;1.83;1.20;;;2.30;99.90;;;;;;5075834;28;20222;-82
2021/11/30 12:29:36;;;;;;;0.80;0.80;;;2.30;99.90;;;;;;5073492;28;20218;-82
2021/11/30 12:32:15;;;;;;;0.93;0.93;;;2.30;99.90;;;;;;5076000;28;20214;-83
2021/11/30 12:34:48;;;;;;;1.05;0.95;;;2.40;99.90;;;;;;5065190;28;20206;-82
2021/11/30 12:37:22;;;;;;;0.68;0.68;;;2.50;99.90;;;;;;5039841;28;20238;-83
2021/11/30 12:39:58;;;;;;;0.82;0.82;;;2.40;99.90;;;;;;5042160;28;20203;-83
2021/11/30 12:42:26;;;;;;;0.90;0.90;;;2.40;99.90;;;;;;5041777;28;20198;-84
2021/11/30 12:44:54;;;;;;;1.48;0.85;;;2.40;99.90;;;;;;5056610;28;20214;-83
2021/11/30 12:47:24;;;;;;;0.90;0.60;;;2.30;99.90;;;;;;5056568;28;20233;-83
2021/11/30 12:49:53;;;;;;;0.90;0.80;;;2.10;99.90;;;;;;5033999;28;20593;-84
2021/11/30 12:52:22;;;;;;;1.27;1.27;;;2.20;99.90;;;;;;5036733;28;20207;-82
2021/11/30 12:54:51;;;;;;;1.20;1.10;;;2.20;99.90;;;;;;5014482;28;20207;-84
2021/11/30 12:57:41;;;;;;;0.80;0.80;;;2.20;99.90;;;;;;5015182;28;20230;-83
2021/11/30 13:00:11;;;;;;;0.55;0.55;;;2.10;99.90;;;;;;5016626;28;20618;-82
2021/11/30 13:02:39;;;;;;;1.58;1.48;;;2.10;99.90;;;;;;5023634;28;20210;-83
2021/11/30 13:05:31;;;;;;;1.05;1.02;;;2.10;99.90;;;;;;5060051;28;20660;-82
2021/11/30 13:08:08;;;;;;;1.30;1.17;;;2.10;99.90;;;;;;5047408;28;20230;-83
2021/11/30 13:10:40;;;;;;;0.82;0.82;;;2.10;99.90;;;;;;5036700;28;20283;-83
2021/11/30 13:13:12;;;;;;;2.53;1.60;;;2.10;99.90;;;;;;5036987;28;20568;-82
2021/11/30 13:15:42;;;;;;;0.80;0.80;;;1.80;99.90;;;;;;5034428;28;20211;-81
2021/11/30 13:18:09;;;;;;;1.25;1.15;;;1.80;99.90;;;;;;5043916;28;20246;-80
2021/11/30 13:21:13;;;;;;;1.10;1.10;;;1.80;99.90;;;;;;5044013;28;20190;-82
2021/11/30 14:15:46;;;;;;;1.42;1.33;;;2.30;99.90;;;;;;4807018;29;20219;-83
2021/11/30 14:19:00;;;;;;;0.60;0.60;;;2.30;99.90;;;;;;4855702;29;20254;-82